<?xml version="1.0" encoding="UTF-8" standalone="no" ?>
<gpx xmlns="http://www.topografix.com/GPX/1/1" xmlns:xsi="http://www.w3.org/2001/XMLSchema-instance" xsi:schemaLocation="http://www.topografix.com/GPX/1/1 http://www.topografix.com/GPX/1/1/gpx.xsd" version="1.1" creator="VisuGPX - https://www.visugpx.com">
  <metadata>
    <name>10901051-Vers St Jouvent 2021</name>
  </metadata>
  <trk>
    <name><![CDATA[10901051-Vers St Jouvent 2021]]></name>
    <trkseg>
      <trkpt lat="45.87212" lon="1.17609">
        <ele>415</ele>
        <time>2021-03-06T20:07:17Z</time>
      </trkpt>
      <trkpt lat="45.87325" lon="1.17579">
        <ele>419</ele>
        <time>2021-03-06T20:07:44Z</time>
      </trkpt>
      <trkpt lat="45.87364" lon="1.17656">
        <ele>422</ele>
        <time>2021-03-06T20:07:59Z</time>
      </trkpt>
      <trkpt lat="45.87457" lon="1.17579">
        <ele>416</ele>
        <time>2021-03-06T20:08:24Z</time>
      </trkpt>
      <trkpt lat="45.87599" lon="1.17615">
        <ele>421</ele>
        <time>2021-03-06T20:08:58Z</time>
      </trkpt>
      <trkpt lat="45.87752" lon="1.17579">
        <ele>423</ele>
        <time>2021-03-06T20:09:34Z</time>
      </trkpt>
      <trkpt lat="45.8799" lon="1.17395">
        <ele>422</ele>
        <time>2021-03-06T20:10:37Z</time>
      </trkpt>
      <trkpt lat="45.88199" lon="1.17375">
        <ele>433</ele>
        <time>2021-03-06T20:11:26Z</time>
      </trkpt>
      <trkpt lat="45.88388" lon="1.17451">
        <ele>432</ele>
        <time>2021-03-06T20:12:12Z</time>
      </trkpt>
      <trkpt lat="45.88683" lon="1.17768">
        <ele>427</ele>
        <time>2021-03-06T20:13:38Z</time>
      </trkpt>
      <trkpt lat="45.88651" lon="1.17824">
        <ele>429</ele>
        <time>2021-03-06T20:13:50Z</time>
      </trkpt>
      <trkpt lat="45.88562" lon="1.17855">
        <ele>429</ele>
        <time>2021-03-06T20:14:11Z</time>
      </trkpt>
      <trkpt lat="45.88512" lon="1.17911">
        <ele>426</ele>
        <time>2021-03-06T20:14:26Z</time>
      </trkpt>
      <trkpt lat="45.88466" lon="1.17982">
        <ele>423</ele>
        <time>2021-03-06T20:14:42Z</time>
      </trkpt>
      <trkpt lat="45.88444" lon="1.1811">
        <ele>418</ele>
        <time>2021-03-06T20:15:03Z</time>
      </trkpt>
      <trkpt lat="45.88437" lon="1.18283">
        <ele>414</ele>
        <time>2021-03-06T20:15:32Z</time>
      </trkpt>
      <trkpt lat="45.8842" lon="1.1837">
        <ele>412</ele>
        <time>2021-03-06T20:15:46Z</time>
      </trkpt>
      <trkpt lat="45.88302" lon="1.18584">
        <ele>401</ele>
        <time>2021-03-06T20:16:31Z</time>
      </trkpt>
      <trkpt lat="45.88363" lon="1.18886">
        <ele>408</ele>
        <time>2021-03-06T20:17:22Z</time>
      </trkpt>
      <trkpt lat="45.88462" lon="1.18983">
        <ele>412</ele>
        <time>2021-03-06T20:17:50Z</time>
      </trkpt>
      <trkpt lat="45.88516" lon="1.18972">
        <ele>415</ele>
        <time>2021-03-06T20:18:02Z</time>
      </trkpt>
      <trkpt lat="45.88587" lon="1.19064">
        <ele>413</ele>
        <time>2021-03-06T20:18:25Z</time>
      </trkpt>
      <trkpt lat="45.8799" lon="1.20223">
        <ele>389</ele>
        <time>2021-03-06T20:22:19Z</time>
      </trkpt>
      <trkpt lat="45.88015" lon="1.20437">
        <ele>394</ele>
        <time>2021-03-06T20:22:54Z</time>
      </trkpt>
      <trkpt lat="45.88086" lon="1.20544">
        <ele>396</ele>
        <time>2021-03-06T20:23:18Z</time>
      </trkpt>
      <trkpt lat="45.88214" lon="1.20687">
        <ele>394</ele>
        <time>2021-03-06T20:23:56Z</time>
      </trkpt>
      <trkpt lat="45.88253" lon="1.20886">
        <ele>389</ele>
        <time>2021-03-06T20:24:30Z</time>
      </trkpt>
      <trkpt lat="45.8826" lon="1.21044">
        <ele>389</ele>
        <time>2021-03-06T20:24:56Z</time>
      </trkpt>
      <trkpt lat="45.88423" lon="1.21279">
        <ele>379</ele>
        <time>2021-03-06T20:25:50Z</time>
      </trkpt>
      <trkpt lat="45.88572" lon="1.21294">
        <ele>379</ele>
        <time>2021-03-06T20:26:24Z</time>
      </trkpt>
      <trkpt lat="45.88746" lon="1.21463">
        <ele>384</ele>
        <time>2021-03-06T20:27:14Z</time>
      </trkpt>
      <trkpt lat="45.88821" lon="1.21626">
        <ele>387</ele>
        <time>2021-03-06T20:27:45Z</time>
      </trkpt>
      <trkpt lat="45.88963" lon="1.2183">
        <ele>392</ele>
        <time>2021-03-06T20:28:32Z</time>
      </trkpt>
      <trkpt lat="45.89116" lon="1.21994">
        <ele>392</ele>
        <time>2021-03-06T20:29:17Z</time>
      </trkpt>
      <trkpt lat="45.89333" lon="1.2208">
        <ele>397</ele>
        <time>2021-03-06T20:30:09Z</time>
      </trkpt>
      <trkpt lat="45.89446" lon="1.22157">
        <ele>394</ele>
        <time>2021-03-06T20:30:39Z</time>
      </trkpt>
      <trkpt lat="45.89428" lon="1.22285">
        <ele>392</ele>
        <time>2021-03-06T20:31:00Z</time>
      </trkpt>
      <trkpt lat="45.89478" lon="1.22402">
        <ele>390</ele>
        <time>2021-03-06T20:31:22Z</time>
      </trkpt>
      <trkpt lat="45.89535" lon="1.22489">
        <ele>390</ele>
        <time>2021-03-06T20:31:41Z</time>
      </trkpt>
      <trkpt lat="45.89638" lon="1.22412">
        <ele>392</ele>
        <time>2021-03-06T20:32:09Z</time>
      </trkpt>
      <trkpt lat="45.89716" lon="1.223">
        <ele>395</ele>
        <time>2021-03-06T20:32:34Z</time>
      </trkpt>
      <trkpt lat="45.89836" lon="1.22389">
        <ele>393</ele>
        <time>2021-03-06T20:33:06Z</time>
      </trkpt>
      <trkpt lat="45.89758" lon="1.22868">
        <ele>391</ele>
        <time>2021-03-06T20:34:26Z</time>
      </trkpt>
      <trkpt lat="45.89969" lon="1.2271">
        <ele>394</ele>
        <time>2021-03-06T20:35:21Z</time>
      </trkpt>
      <trkpt lat="45.90039" lon="1.22738">
        <ele>394</ele>
        <time>2021-03-06T20:35:38Z</time>
      </trkpt>
      <trkpt lat="45.90072" lon="1.22798">
        <ele>393</ele>
        <time>2021-03-06T20:35:51Z</time>
      </trkpt>
      <trkpt lat="45.90136" lon="1.23047">
        <ele>386</ele>
        <time>2021-03-06T20:36:34Z</time>
      </trkpt>
      <trkpt lat="45.90134" lon="1.23175">
        <ele>383</ele>
        <time>2021-03-06T20:36:55Z</time>
      </trkpt>
      <trkpt lat="45.90184" lon="1.23259">
        <ele>382</ele>
        <time>2021-03-06T20:37:13Z</time>
      </trkpt>
      <trkpt lat="45.90267" lon="1.23457">
        <ele>380</ele>
        <time>2021-03-06T20:37:50Z</time>
      </trkpt>
      <trkpt lat="45.90531" lon="1.23648">
        <ele>390</ele>
        <time>2021-03-06T20:38:59Z</time>
      </trkpt>
      <trkpt lat="45.90657" lon="1.23951">
        <ele>388</ele>
        <time>2021-03-06T20:39:57Z</time>
      </trkpt>
      <trkpt lat="45.90782" lon="1.2414">
        <ele>392</ele>
        <time>2021-03-06T20:40:39Z</time>
      </trkpt>
      <trkpt lat="45.90862" lon="1.24282">
        <ele>388</ele>
        <time>2021-03-06T20:41:09Z</time>
      </trkpt>
      <trkpt lat="45.90989" lon="1.24425">
        <ele>384</ele>
        <time>2021-03-06T20:41:46Z</time>
      </trkpt>
      <trkpt lat="45.91386" lon="1.24716">
        <ele>370</ele>
        <time>2021-03-06T20:43:30Z</time>
      </trkpt>
      <trkpt lat="45.91557" lon="1.24652">
        <ele>363</ele>
        <time>2021-03-06T20:44:12Z</time>
      </trkpt>
      <trkpt lat="45.91728" lon="1.24637">
        <ele>365</ele>
        <time>2021-03-06T20:44:52Z</time>
      </trkpt>
      <trkpt lat="45.91968" lon="1.24631">
        <ele>383</ele>
        <time>2021-03-06T20:45:48Z</time>
      </trkpt>
      <trkpt lat="45.92362" lon="1.24474">
        <ele>406</ele>
        <time>2021-03-06T20:47:23Z</time>
      </trkpt>
      <trkpt lat="45.92536" lon="1.24397">
        <ele>404</ele>
        <time>2021-03-06T20:48:06Z</time>
      </trkpt>
      <trkpt lat="45.92628" lon="1.24729">
        <ele>396</ele>
        <time>2021-03-06T20:49:04Z</time>
      </trkpt>
      <trkpt lat="45.92706" lon="1.24811">
        <ele>397</ele>
        <time>2021-03-06T20:49:26Z</time>
      </trkpt>
      <trkpt lat="45.92713" lon="1.24632">
        <ele>405</ele>
        <time>2021-03-06T20:49:56Z</time>
      </trkpt>
      <trkpt lat="45.92798" lon="1.24525">
        <ele>413</ele>
        <time>2021-03-06T20:50:22Z</time>
      </trkpt>
      <trkpt lat="45.92972" lon="1.24571">
        <ele>429</ele>
        <time>2021-03-06T20:51:03Z</time>
      </trkpt>
      <trkpt lat="45.93029" lon="1.24642">
        <ele>429</ele>
        <time>2021-03-06T20:51:21Z</time>
      </trkpt>
      <trkpt lat="45.93036" lon="1.24775">
        <ele>425</ele>
        <time>2021-03-06T20:51:43Z</time>
      </trkpt>
      <trkpt lat="45.93008" lon="1.24913">
        <ele>415</ele>
        <time>2021-03-06T20:52:06Z</time>
      </trkpt>
      <trkpt lat="45.93057" lon="1.25081">
        <ele>404</ele>
        <time>2021-03-06T20:52:35Z</time>
      </trkpt>
      <trkpt lat="45.9315" lon="1.25168">
        <ele>397</ele>
        <time>2021-03-06T20:53:01Z</time>
      </trkpt>
      <trkpt lat="45.9327" lon="1.25173">
        <ele>403</ele>
        <time>2021-03-06T20:53:29Z</time>
      </trkpt>
      <trkpt lat="45.93423" lon="1.25377">
        <ele>409</ele>
        <time>2021-03-06T20:54:18Z</time>
      </trkpt>
      <trkpt lat="45.93547" lon="1.25515">
        <ele>412</ele>
        <time>2021-03-06T20:54:55Z</time>
      </trkpt>
      <trkpt lat="45.93679" lon="1.25653">
        <ele>414</ele>
        <time>2021-03-06T20:55:33Z</time>
      </trkpt>
      <trkpt lat="45.93742" lon="1.25806">
        <ele>410</ele>
        <time>2021-03-06T20:56:02Z</time>
      </trkpt>
      <trkpt lat="45.93778" lon="1.26051">
        <ele>400</ele>
        <time>2021-03-06T20:56:42Z</time>
      </trkpt>
      <trkpt lat="45.93867" lon="1.26153">
        <ele>409</ele>
        <time>2021-03-06T20:57:09Z</time>
      </trkpt>
      <trkpt lat="45.94005" lon="1.26286">
        <ele>410</ele>
        <time>2021-03-06T20:57:48Z</time>
      </trkpt>
      <trkpt lat="45.94108" lon="1.2639">
        <ele>427</ele>
        <time>2021-03-06T20:58:17Z</time>
      </trkpt>
      <trkpt lat="45.94218" lon="1.26431">
        <ele>445</ele>
        <time>2021-03-06T20:58:44Z</time>
      </trkpt>
      <trkpt lat="45.94328" lon="1.26426">
        <ele>450</ele>
        <time>2021-03-06T20:59:09Z</time>
      </trkpt>
      <trkpt lat="45.94466" lon="1.26457">
        <ele>455</ele>
        <time>2021-03-06T20:59:42Z</time>
      </trkpt>
      <trkpt lat="45.94505" lon="1.26671">
        <ele>450</ele>
        <time>2021-03-06T21:00:18Z</time>
      </trkpt>
      <trkpt lat="45.94531" lon="1.26776">
        <ele>447</ele>
        <time>2021-03-06T21:00:36Z</time>
      </trkpt>
      <trkpt lat="45.94545" lon="1.26861">
        <ele>451</ele>
        <time>2021-03-06T21:00:50Z</time>
      </trkpt>
      <trkpt lat="45.94661" lon="1.27031">
        <ele>457</ele>
        <time>2021-03-06T21:01:29Z</time>
      </trkpt>
      <trkpt lat="45.9465" lon="1.27069">
        <ele>457</ele>
        <time>2021-03-06T21:01:36Z</time>
      </trkpt>
      <trkpt lat="45.94703" lon="1.27065">
        <ele>459</ele>
        <time>2021-03-06T21:01:48Z</time>
      </trkpt>
      <trkpt lat="45.94796" lon="1.27098">
        <ele>464</ele>
        <time>2021-03-06T21:02:10Z</time>
      </trkpt>
      <trkpt lat="45.94875" lon="1.27139">
        <ele>470</ele>
        <time>2021-03-06T21:02:30Z</time>
      </trkpt>
      <trkpt lat="45.94949" lon="1.27139">
        <ele>474</ele>
        <time>2021-03-06T21:02:47Z</time>
      </trkpt>
      <trkpt lat="45.95022" lon="1.27117">
        <ele>477</ele>
        <time>2021-03-06T21:03:05Z</time>
      </trkpt>
      <trkpt lat="45.95145" lon="1.27109">
        <ele>484</ele>
        <time>2021-03-06T21:03:33Z</time>
      </trkpt>
      <trkpt lat="45.95228" lon="1.27182">
        <ele>489</ele>
        <time>2021-03-06T21:03:56Z</time>
      </trkpt>
      <trkpt lat="45.9524" lon="1.27233">
        <ele>492</ele>
        <time>2021-03-06T21:04:05Z</time>
      </trkpt>
      <trkpt lat="45.95294" lon="1.27283">
        <ele>489</ele>
        <time>2021-03-06T21:04:20Z</time>
      </trkpt>
      <trkpt lat="45.95316" lon="1.27366">
        <ele>488</ele>
        <time>2021-03-06T21:04:34Z</time>
      </trkpt>
      <trkpt lat="45.95312" lon="1.2742">
        <ele>490</ele>
        <time>2021-03-06T21:04:43Z</time>
      </trkpt>
      <trkpt lat="45.95434" lon="1.27489">
        <ele>492</ele>
        <time>2021-03-06T21:05:14Z</time>
      </trkpt>
      <trkpt lat="45.95545" lon="1.2763">
        <ele>510</ele>
        <time>2021-03-06T21:05:48Z</time>
      </trkpt>
      <trkpt lat="45.95742" lon="1.27725">
        <ele>525</ele>
        <time>2021-03-06T21:06:37Z</time>
      </trkpt>
      <trkpt lat="45.95801" lon="1.27785">
        <ele>533</ele>
        <time>2021-03-06T21:06:54Z</time>
      </trkpt>
      <trkpt lat="45.96037" lon="1.28012">
        <ele>524</ele>
        <time>2021-03-06T21:08:00Z</time>
      </trkpt>
      <trkpt lat="45.96117" lon="1.28024">
        <ele>525</ele>
        <time>2021-03-06T21:08:19Z</time>
      </trkpt>
      <trkpt lat="45.96214" lon="1.27933">
        <ele>519</ele>
        <time>2021-03-06T21:08:46Z</time>
      </trkpt>
      <trkpt lat="45.96286" lon="1.27981">
        <ele>519</ele>
        <time>2021-03-06T21:09:04Z</time>
      </trkpt>
      <trkpt lat="45.96222" lon="1.28117">
        <ele>514</ele>
        <time>2021-03-06T21:09:31Z</time>
      </trkpt>
      <trkpt lat="45.96165" lon="1.28192">
        <ele>513</ele>
        <time>2021-03-06T21:09:49Z</time>
      </trkpt>
      <trkpt lat="45.96227" lon="1.28387">
        <ele>518</ele>
        <time>2021-03-06T21:10:24Z</time>
      </trkpt>
      <trkpt lat="45.96241" lon="1.28448">
        <ele>522</ele>
        <time>2021-03-06T21:10:34Z</time>
      </trkpt>
      <trkpt lat="45.96319" lon="1.28497">
        <ele>517</ele>
        <time>2021-03-06T21:10:54Z</time>
      </trkpt>
      <trkpt lat="45.9639" lon="1.28512">
        <ele>520</ele>
        <time>2021-03-06T21:11:11Z</time>
      </trkpt>
      <trkpt lat="45.96504" lon="1.28443">
        <ele>507</ele>
        <time>2021-03-06T21:11:40Z</time>
      </trkpt>
      <trkpt lat="45.96733" lon="1.28489">
        <ele>496</ele>
        <time>2021-03-06T21:12:34Z</time>
      </trkpt>
      <trkpt lat="45.96771" lon="1.28512">
        <ele>494</ele>
        <time>2021-03-06T21:12:43Z</time>
      </trkpt>
      <trkpt lat="45.96853" lon="1.28495">
        <ele>485</ele>
        <time>2021-03-06T21:13:03Z</time>
      </trkpt>
      <trkpt lat="45.96917" lon="1.28501">
        <ele>489</ele>
        <time>2021-03-06T21:13:18Z</time>
      </trkpt>
      <trkpt lat="45.9707" lon="1.2842">
        <ele>485</ele>
        <time>2021-03-06T21:13:56Z</time>
      </trkpt>
      <trkpt lat="45.97157" lon="1.28332">
        <ele>482</ele>
        <time>2021-03-06T21:14:21Z</time>
      </trkpt>
      <trkpt lat="45.97242" lon="1.28218">
        <ele>475</ele>
        <time>2021-03-06T21:14:48Z</time>
      </trkpt>
      <trkpt lat="45.97317" lon="1.28167">
        <ele>462</ele>
        <time>2021-03-06T21:15:07Z</time>
      </trkpt>
      <trkpt lat="45.97428" lon="1.28154">
        <ele>445</ele>
        <time>2021-03-06T21:15:33Z</time>
      </trkpt>
      <trkpt lat="45.975" lon="1.28107">
        <ele>428</ele>
        <time>2021-03-06T21:15:52Z</time>
      </trkpt>
      <trkpt lat="45.97557" lon="1.28167">
        <ele>412</ele>
        <time>2021-03-06T21:16:08Z</time>
      </trkpt>
      <trkpt lat="45.97603" lon="1.28229">
        <ele>401</ele>
        <time>2021-03-06T21:16:23Z</time>
      </trkpt>
      <trkpt lat="45.97651" lon="1.28184">
        <ele>399</ele>
        <time>2021-03-06T21:16:36Z</time>
      </trkpt>
      <trkpt lat="45.97804" lon="1.28293">
        <ele>410</ele>
        <time>2021-03-06T21:17:16Z</time>
      </trkpt>
      <trkpt lat="45.97949" lon="1.28304">
        <ele>410</ele>
        <time>2021-03-06T21:17:50Z</time>
      </trkpt>
      <trkpt lat="45.98" lon="1.28227">
        <ele>410</ele>
        <time>2021-03-06T21:18:07Z</time>
      </trkpt>
      <trkpt lat="45.98156" lon="1.28235">
        <ele>414</ele>
        <time>2021-03-06T21:18:44Z</time>
      </trkpt>
      <trkpt lat="45.98184" lon="1.28147">
        <ele>415</ele>
        <time>2021-03-06T21:18:59Z</time>
      </trkpt>
      <trkpt lat="45.98214" lon="1.27928">
        <ele>413</ele>
        <time>2021-03-06T21:19:36Z</time>
      </trkpt>
      <trkpt lat="45.98162" lon="1.27954">
        <ele>411</ele>
        <time>2021-03-06T21:19:49Z</time>
      </trkpt>
      <trkpt lat="45.9808" lon="1.27948">
        <ele>407</ele>
        <time>2021-03-06T21:20:08Z</time>
      </trkpt>
      <trkpt lat="45.98011" lon="1.27969">
        <ele>408</ele>
        <time>2021-03-06T21:20:24Z</time>
      </trkpt>
      <trkpt lat="45.97953" lon="1.27944">
        <ele>402</ele>
        <time>2021-03-06T21:20:38Z</time>
      </trkpt>
      <trkpt lat="45.97888" lon="1.27967">
        <ele>396</ele>
        <time>2021-03-06T21:20:54Z</time>
      </trkpt>
      <trkpt lat="45.97771" lon="1.2792">
        <ele>384</ele>
        <time>2021-03-06T21:21:22Z</time>
      </trkpt>
      <trkpt lat="45.9761" lon="1.27772">
        <ele>377</ele>
        <time>2021-03-06T21:22:07Z</time>
      </trkpt>
      <trkpt lat="45.97408" lon="1.2763">
        <ele>394</ele>
        <time>2021-03-06T21:22:59Z</time>
      </trkpt>
      <trkpt lat="45.97482" lon="1.27607">
        <ele>399</ele>
        <time>2021-03-06T21:23:17Z</time>
      </trkpt>
      <trkpt lat="45.97569" lon="1.27559">
        <ele>408</ele>
        <time>2021-03-06T21:23:39Z</time>
      </trkpt>
      <trkpt lat="45.97604" lon="1.27504">
        <ele>416</ele>
        <time>2021-03-06T21:23:51Z</time>
      </trkpt>
      <trkpt lat="45.97628" lon="1.27396">
        <ele>431</ele>
        <time>2021-03-06T21:24:09Z</time>
      </trkpt>
      <trkpt lat="45.97668" lon="1.27364">
        <ele>427</ele>
        <time>2021-03-06T21:24:20Z</time>
      </trkpt>
      <trkpt lat="45.97697" lon="1.27293">
        <ele>433</ele>
        <time>2021-03-06T21:24:33Z</time>
      </trkpt>
      <trkpt lat="45.97677" lon="1.27201">
        <ele>447</ele>
        <time>2021-03-06T21:24:49Z</time>
      </trkpt>
      <trkpt lat="45.97654" lon="1.27139">
        <ele>452</ele>
        <time>2021-03-06T21:25:01Z</time>
      </trkpt>
      <trkpt lat="45.97594" lon="1.27206">
        <ele>459</ele>
        <time>2021-03-06T21:25:18Z</time>
      </trkpt>
      <trkpt lat="45.97446" lon="1.27147">
        <ele>475</ele>
        <time>2021-03-06T21:25:54Z</time>
      </trkpt>
      <trkpt lat="45.97347" lon="1.27056">
        <ele>477</ele>
        <time>2021-03-06T21:26:22Z</time>
      </trkpt>
      <trkpt lat="45.97196" lon="1.27024">
        <ele>472</ele>
        <time>2021-03-06T21:26:57Z</time>
      </trkpt>
      <trkpt lat="45.9711" lon="1.27042">
        <ele>471</ele>
        <time>2021-03-06T21:27:17Z</time>
      </trkpt>
      <trkpt lat="45.97033" lon="1.26999">
        <ele>471</ele>
        <time>2021-03-06T21:27:37Z</time>
      </trkpt>
      <trkpt lat="45.96908" lon="1.26893">
        <ele>466</ele>
        <time>2021-03-06T21:28:11Z</time>
      </trkpt>
      <trkpt lat="45.96913" lon="1.26865">
        <ele>464</ele>
        <time>2021-03-06T21:28:15Z</time>
      </trkpt>
      <trkpt lat="45.96947" lon="1.26838">
        <ele>462</ele>
        <time>2021-03-06T21:28:24Z</time>
      </trkpt>
      <trkpt lat="45.96978" lon="1.26826">
        <ele>459</ele>
        <time>2021-03-06T21:28:32Z</time>
      </trkpt>
      <trkpt lat="45.96896" lon="1.26776">
        <ele>459</ele>
        <time>2021-03-06T21:28:53Z</time>
      </trkpt>
      <trkpt lat="45.96877" lon="1.26714">
        <ele>456</ele>
        <time>2021-03-06T21:29:04Z</time>
      </trkpt>
      <trkpt lat="45.96911" lon="1.26529">
        <ele>450</ele>
        <time>2021-03-06T21:29:35Z</time>
      </trkpt>
      <trkpt lat="45.97023" lon="1.26384">
        <ele>437</ele>
        <time>2021-03-06T21:30:10Z</time>
      </trkpt>
      <trkpt lat="45.97072" lon="1.26351">
        <ele>432</ele>
        <time>2021-03-06T21:30:23Z</time>
      </trkpt>
      <trkpt lat="45.97136" lon="1.2621">
        <ele>422</ele>
        <time>2021-03-06T21:30:50Z</time>
      </trkpt>
      <trkpt lat="45.9695" lon="1.26169">
        <ele>419</ele>
        <time>2021-03-06T21:31:34Z</time>
      </trkpt>
      <trkpt lat="45.96914" lon="1.26137">
        <ele>418</ele>
        <time>2021-03-06T21:31:44Z</time>
      </trkpt>
      <trkpt lat="45.96847" lon="1.26087">
        <ele>412</ele>
        <time>2021-03-06T21:32:01Z</time>
      </trkpt>
      <trkpt lat="45.96874" lon="1.25922">
        <ele>406</ele>
        <time>2021-03-06T21:32:29Z</time>
      </trkpt>
      <trkpt lat="45.96877" lon="1.25628">
        <ele>407</ele>
        <time>2021-03-06T21:33:17Z</time>
      </trkpt>
      <trkpt lat="45.9685" lon="1.25474">
        <ele>404</ele>
        <time>2021-03-06T21:33:42Z</time>
      </trkpt>
      <trkpt lat="45.9686" lon="1.25369">
        <ele>404</ele>
        <time>2021-03-06T21:34:00Z</time>
      </trkpt>
      <trkpt lat="45.96877" lon="1.25302">
        <ele>406</ele>
        <time>2021-03-06T21:34:11Z</time>
      </trkpt>
      <trkpt lat="45.96975" lon="1.25193">
        <ele>408</ele>
        <time>2021-03-06T21:34:40Z</time>
      </trkpt>
      <trkpt lat="45.97087" lon="1.25098">
        <ele>414</ele>
        <time>2021-03-06T21:35:10Z</time>
      </trkpt>
      <trkpt lat="45.97155" lon="1.2488">
        <ele>405</ele>
        <time>2021-03-06T21:35:49Z</time>
      </trkpt>
      <trkpt lat="45.97134" lon="1.2474">
        <ele>399</ele>
        <time>2021-03-06T21:36:12Z</time>
      </trkpt>
      <trkpt lat="45.97133" lon="1.24674">
        <ele>398</ele>
        <time>2021-03-06T21:36:23Z</time>
      </trkpt>
      <trkpt lat="45.97109" lon="1.24583">
        <ele>397</ele>
        <time>2021-03-06T21:36:39Z</time>
      </trkpt>
      <trkpt lat="45.97058" lon="1.24548">
        <ele>395</ele>
        <time>2021-03-06T21:36:52Z</time>
      </trkpt>
      <trkpt lat="45.97043" lon="1.24501">
        <ele>395</ele>
        <time>2021-03-06T21:37:01Z</time>
      </trkpt>
      <trkpt lat="45.97093" lon="1.24439">
        <ele>395</ele>
        <time>2021-03-06T21:37:16Z</time>
      </trkpt>
      <trkpt lat="45.97098" lon="1.24385">
        <ele>394</ele>
        <time>2021-03-06T21:37:25Z</time>
      </trkpt>
      <trkpt lat="45.97145" lon="1.24356">
        <ele>396</ele>
        <time>2021-03-06T21:37:37Z</time>
      </trkpt>
      <trkpt lat="45.97198" lon="1.24263">
        <ele>397</ele>
        <time>2021-03-06T21:37:56Z</time>
      </trkpt>
      <trkpt lat="45.97153" lon="1.24223">
        <ele>396</ele>
        <time>2021-03-06T21:38:09Z</time>
      </trkpt>
      <trkpt lat="45.97183" lon="1.24079">
        <ele>391</ele>
        <time>2021-03-06T21:38:33Z</time>
      </trkpt>
      <trkpt lat="45.97161" lon="1.2401">
        <ele>393</ele>
        <time>2021-03-06T21:38:45Z</time>
      </trkpt>
      <trkpt lat="45.97073" lon="1.23952">
        <ele>397</ele>
        <time>2021-03-06T21:39:08Z</time>
      </trkpt>
      <trkpt lat="45.97115" lon="1.23822">
        <ele>388</ele>
        <time>2021-03-06T21:39:31Z</time>
      </trkpt>
      <trkpt lat="45.9713" lon="1.23752">
        <ele>387</ele>
        <time>2021-03-06T21:39:43Z</time>
      </trkpt>
      <trkpt lat="45.97196" lon="1.23588">
        <ele>391</ele>
        <time>2021-03-06T21:40:14Z</time>
      </trkpt>
      <trkpt lat="45.97202" lon="1.23551">
        <ele>391</ele>
        <time>2021-03-06T21:40:20Z</time>
      </trkpt>
      <trkpt lat="45.97184" lon="1.23486">
        <ele>388</ele>
        <time>2021-03-06T21:40:31Z</time>
      </trkpt>
      <trkpt lat="45.97156" lon="1.2343">
        <ele>383</ele>
        <time>2021-03-06T21:40:43Z</time>
      </trkpt>
      <trkpt lat="45.9712" lon="1.23328">
        <ele>378</ele>
        <time>2021-03-06T21:41:01Z</time>
      </trkpt>
      <trkpt lat="45.97083" lon="1.2325">
        <ele>375</ele>
        <time>2021-03-06T21:41:17Z</time>
      </trkpt>
      <trkpt lat="45.97093" lon="1.2318">
        <ele>374</ele>
        <time>2021-03-06T21:41:28Z</time>
      </trkpt>
      <trkpt lat="45.97105" lon="1.23067">
        <ele>376</ele>
        <time>2021-03-06T21:41:47Z</time>
      </trkpt>
      <trkpt lat="45.9707" lon="1.2304">
        <ele>375</ele>
        <time>2021-03-06T21:41:56Z</time>
      </trkpt>
      <trkpt lat="45.9703" lon="1.23016">
        <ele>372</ele>
        <time>2021-03-06T21:42:06Z</time>
      </trkpt>
      <trkpt lat="45.96971" lon="1.23015">
        <ele>369</ele>
        <time>2021-03-06T21:42:20Z</time>
      </trkpt>
      <trkpt lat="45.96899" lon="1.22981">
        <ele>366</ele>
        <time>2021-03-06T21:42:38Z</time>
      </trkpt>
      <trkpt lat="45.96859" lon="1.22937">
        <ele>364</ele>
        <time>2021-03-06T21:42:49Z</time>
      </trkpt>
      <trkpt lat="45.96809" lon="1.22937">
        <ele>363</ele>
        <time>2021-03-06T21:43:01Z</time>
      </trkpt>
      <trkpt lat="45.96714" lon="1.22851">
        <ele>358</ele>
        <time>2021-03-06T21:43:27Z</time>
      </trkpt>
      <trkpt lat="45.96685" lon="1.22822">
        <ele>358</ele>
        <time>2021-03-06T21:43:35Z</time>
      </trkpt>
      <trkpt lat="45.96676" lon="1.22772">
        <ele>356</ele>
        <time>2021-03-06T21:43:44Z</time>
      </trkpt>
      <trkpt lat="45.96571" lon="1.22668">
        <ele>365</ele>
        <time>2021-03-06T21:44:14Z</time>
      </trkpt>
      <trkpt lat="45.96543" lon="1.22583">
        <ele>367</ele>
        <time>2021-03-06T21:44:29Z</time>
      </trkpt>
      <trkpt lat="45.96548" lon="1.22537">
        <ele>367</ele>
        <time>2021-03-06T21:44:36Z</time>
      </trkpt>
      <trkpt lat="45.96507" lon="1.22219">
        <ele>391</ele>
        <time>2021-03-06T21:45:29Z</time>
      </trkpt>
      <trkpt lat="45.96524" lon="1.2217">
        <ele>392</ele>
        <time>2021-03-06T21:45:38Z</time>
      </trkpt>
      <trkpt lat="45.9659" lon="1.22049">
        <ele>385</ele>
        <time>2021-03-06T21:46:03Z</time>
      </trkpt>
      <trkpt lat="45.96689" lon="1.22003">
        <ele>373</ele>
        <time>2021-03-06T21:46:27Z</time>
      </trkpt>
      <trkpt lat="45.96769" lon="1.21997">
        <ele>364</ele>
        <time>2021-03-06T21:46:46Z</time>
      </trkpt>
      <trkpt lat="45.96887" lon="1.21942">
        <ele>359</ele>
        <time>2021-03-06T21:47:15Z</time>
      </trkpt>
      <trkpt lat="45.97022" lon="1.21955">
        <ele>360</ele>
        <time>2021-03-06T21:47:46Z</time>
      </trkpt>
      <trkpt lat="45.97071" lon="1.21927">
        <ele>356</ele>
        <time>2021-03-06T21:47:59Z</time>
      </trkpt>
      <trkpt lat="45.971" lon="1.21942">
        <ele>354</ele>
        <time>2021-03-06T21:48:06Z</time>
      </trkpt>
      <trkpt lat="45.97149" lon="1.21915">
        <ele>356</ele>
        <time>2021-03-06T21:48:18Z</time>
      </trkpt>
      <trkpt lat="45.97193" lon="1.21949">
        <ele>356</ele>
        <time>2021-03-06T21:48:30Z</time>
      </trkpt>
      <trkpt lat="45.97269" lon="1.222">
        <ele>361</ele>
        <time>2021-03-06T21:49:14Z</time>
      </trkpt>
      <trkpt lat="45.97239" lon="1.22325">
        <ele>362</ele>
        <time>2021-03-06T21:49:36Z</time>
      </trkpt>
      <trkpt lat="45.97263" lon="1.22295">
        <ele>361</ele>
        <time>2021-03-06T21:49:43Z</time>
      </trkpt>
      <trkpt lat="45.97298" lon="1.22307">
        <ele>361</ele>
        <time>2021-03-06T21:49:52Z</time>
      </trkpt>
      <trkpt lat="45.97341" lon="1.22301">
        <ele>361</ele>
        <time>2021-03-06T21:50:02Z</time>
      </trkpt>
      <trkpt lat="45.974" lon="1.22331">
        <ele>360</ele>
        <time>2021-03-06T21:50:16Z</time>
      </trkpt>
      <trkpt lat="45.97414" lon="1.22279">
        <ele>362</ele>
        <time>2021-03-06T21:50:25Z</time>
      </trkpt>
      <trkpt lat="45.97454" lon="1.22231">
        <ele>364</ele>
        <time>2021-03-06T21:50:37Z</time>
      </trkpt>
      <trkpt lat="45.9757" lon="1.22273">
        <ele>367</ele>
        <time>2021-03-06T21:51:05Z</time>
      </trkpt>
      <trkpt lat="45.97617" lon="1.22322">
        <ele>372</ele>
        <time>2021-03-06T21:51:19Z</time>
      </trkpt>
      <trkpt lat="45.97646" lon="1.22316">
        <ele>372</ele>
        <time>2021-03-06T21:51:26Z</time>
      </trkpt>
      <trkpt lat="45.97676" lon="1.22452">
        <ele>378</ele>
        <time>2021-03-06T21:51:49Z</time>
      </trkpt>
      <trkpt lat="45.97705" lon="1.22513">
        <ele>382</ele>
        <time>2021-03-06T21:52:01Z</time>
      </trkpt>
      <trkpt lat="45.97754" lon="1.22568">
        <ele>386</ele>
        <time>2021-03-06T21:52:15Z</time>
      </trkpt>
      <trkpt lat="45.97809" lon="1.22653">
        <ele>394</ele>
        <time>2021-03-06T21:52:34Z</time>
      </trkpt>
      <trkpt lat="45.97932" lon="1.22522">
        <ele>385</ele>
        <time>2021-03-06T21:53:10Z</time>
      </trkpt>
      <trkpt lat="45.98092" lon="1.22379">
        <ele>381</ele>
        <time>2021-03-06T21:53:54Z</time>
      </trkpt>
      <trkpt lat="45.98138" lon="1.22236">
        <ele>376</ele>
        <time>2021-03-06T21:54:20Z</time>
      </trkpt>
      <trkpt lat="45.98124" lon="1.22134">
        <ele>371</ele>
        <time>2021-03-06T21:54:36Z</time>
      </trkpt>
      <trkpt lat="45.98135" lon="1.22011">
        <ele>366</ele>
        <time>2021-03-06T21:54:57Z</time>
      </trkpt>
      <trkpt lat="45.98191" lon="1.21925">
        <ele>369</ele>
        <time>2021-03-06T21:55:16Z</time>
      </trkpt>
      <trkpt lat="45.98237" lon="1.21787">
        <ele>373</ele>
        <time>2021-03-06T21:55:41Z</time>
      </trkpt>
      <trkpt lat="45.98255" lon="1.21659">
        <ele>379</ele>
        <time>2021-03-06T21:56:02Z</time>
      </trkpt>
      <trkpt lat="45.98319" lon="1.21557">
        <ele>388</ele>
        <time>2021-03-06T21:56:24Z</time>
      </trkpt>
      <trkpt lat="45.98408" lon="1.21481">
        <ele>394</ele>
        <time>2021-03-06T21:56:48Z</time>
      </trkpt>
      <trkpt lat="45.98518" lon="1.21425">
        <ele>398</ele>
        <time>2021-03-06T21:57:15Z</time>
      </trkpt>
      <trkpt lat="45.98535" lon="1.21358">
        <ele>399</ele>
        <time>2021-03-06T21:57:27Z</time>
      </trkpt>
      <trkpt lat="45.98564" lon="1.21144">
        <ele>388</ele>
        <time>2021-03-06T21:58:02Z</time>
      </trkpt>
      <trkpt lat="45.98553" lon="1.21052">
        <ele>382</ele>
        <time>2021-03-06T21:58:18Z</time>
      </trkpt>
      <trkpt lat="45.98493" lon="1.20986">
        <ele>377</ele>
        <time>2021-03-06T21:58:35Z</time>
      </trkpt>
      <trkpt lat="45.98454" lon="1.20935">
        <ele>373</ele>
        <time>2021-03-06T21:58:47Z</time>
      </trkpt>
      <trkpt lat="45.98475" lon="1.20848">
        <ele>373</ele>
        <time>2021-03-06T21:59:02Z</time>
      </trkpt>
      <trkpt lat="45.98415" lon="1.20833">
        <ele>369</ele>
        <time>2021-03-06T21:59:17Z</time>
      </trkpt>
      <trkpt lat="45.98404" lon="1.20685">
        <ele>369</ele>
        <time>2021-03-06T21:59:41Z</time>
      </trkpt>
      <trkpt lat="45.98418" lon="1.20588">
        <ele>368</ele>
        <time>2021-03-06T21:59:57Z</time>
      </trkpt>
      <trkpt lat="45.98464" lon="1.20389">
        <ele>372</ele>
        <time>2021-03-06T22:00:31Z</time>
      </trkpt>
      <trkpt lat="45.98585" lon="1.20419">
        <ele>380</ele>
        <time>2021-03-06T22:01:00Z</time>
      </trkpt>
      <trkpt lat="45.98706" lon="1.20491">
        <ele>399</ele>
        <time>2021-03-06T22:01:30Z</time>
      </trkpt>
      <trkpt lat="45.98798" lon="1.20588">
        <ele>410</ele>
        <time>2021-03-06T22:01:57Z</time>
      </trkpt>
      <trkpt lat="45.98808" lon="1.20705">
        <ele>411</ele>
        <time>2021-03-06T22:02:16Z</time>
      </trkpt>
      <trkpt lat="45.98759" lon="1.20945">
        <ele>394</ele>
        <time>2021-03-06T22:02:56Z</time>
      </trkpt>
      <trkpt lat="45.98833" lon="1.21062">
        <ele>398</ele>
        <time>2021-03-06T22:03:22Z</time>
      </trkpt>
      <trkpt lat="45.9889" lon="1.20868">
        <ele>420</ele>
        <time>2021-03-06T22:03:56Z</time>
      </trkpt>
      <trkpt lat="45.98968" lon="1.20741">
        <ele>425</ele>
        <time>2021-03-06T22:04:24Z</time>
      </trkpt>
      <trkpt lat="45.99025" lon="1.20685">
        <ele>427</ele>
        <time>2021-03-06T22:04:40Z</time>
      </trkpt>
      <trkpt lat="45.98961" lon="1.20572">
        <ele>429</ele>
        <time>2021-03-06T22:05:04Z</time>
      </trkpt>
      <trkpt lat="45.98897" lon="1.2045">
        <ele>428</ele>
        <time>2021-03-06T22:05:28Z</time>
      </trkpt>
      <trkpt lat="45.98823" lon="1.20322">
        <ele>427</ele>
        <time>2021-03-06T22:05:55Z</time>
      </trkpt>
      <trkpt lat="45.98755" lon="1.20195">
        <ele>429</ele>
        <time>2021-03-06T22:06:21Z</time>
      </trkpt>
      <trkpt lat="45.98833" lon="1.20108">
        <ele>422</ele>
        <time>2021-03-06T22:06:45Z</time>
      </trkpt>
      <trkpt lat="45.9889" lon="1.20021">
        <ele>416</ele>
        <time>2021-03-06T22:07:04Z</time>
      </trkpt>
      <trkpt lat="45.98936" lon="1.19904">
        <ele>410</ele>
        <time>2021-03-06T22:07:26Z</time>
      </trkpt>
      <trkpt lat="45.9883" lon="1.19858">
        <ele>416</ele>
        <time>2021-03-06T22:07:52Z</time>
      </trkpt>
      <trkpt lat="45.98691" lon="1.19822">
        <ele>416</ele>
        <time>2021-03-06T22:08:25Z</time>
      </trkpt>
      <trkpt lat="45.98631" lon="1.19797">
        <ele>408</ele>
        <time>2021-03-06T22:08:39Z</time>
      </trkpt>
      <trkpt lat="45.98546" lon="1.19832">
        <ele>406</ele>
        <time>2021-03-06T22:09:00Z</time>
      </trkpt>
      <trkpt lat="45.98496" lon="1.19837">
        <ele>404</ele>
        <time>2021-03-06T22:09:11Z</time>
      </trkpt>
      <trkpt lat="45.98404" lon="1.19853">
        <ele>403</ele>
        <time>2021-03-06T22:09:33Z</time>
      </trkpt>
      <trkpt lat="45.98294" lon="1.19853">
        <ele>396</ele>
        <time>2021-03-06T22:09:59Z</time>
      </trkpt>
      <trkpt lat="45.9823" lon="1.19909">
        <ele>396</ele>
        <time>2021-03-06T22:10:16Z</time>
      </trkpt>
      <trkpt lat="45.98145" lon="1.19904">
        <ele>400</ele>
        <time>2021-03-06T22:10:36Z</time>
      </trkpt>
      <trkpt lat="45.98046" lon="1.19996">
        <ele>404</ele>
        <time>2021-03-06T22:11:04Z</time>
      </trkpt>
      <trkpt lat="45.97989" lon="1.20042">
        <ele>405</ele>
        <time>2021-03-06T22:11:19Z</time>
      </trkpt>
      <trkpt lat="45.97968" lon="1.20138">
        <ele>403</ele>
        <time>2021-03-06T22:11:35Z</time>
      </trkpt>
      <trkpt lat="45.97883" lon="1.2021">
        <ele>399</ele>
        <time>2021-03-06T22:11:58Z</time>
      </trkpt>
      <trkpt lat="45.97784" lon="1.2022">
        <ele>399</ele>
        <time>2021-03-06T22:12:22Z</time>
      </trkpt>
      <trkpt lat="45.97666" lon="1.20225">
        <ele>391</ele>
        <time>2021-03-06T22:12:49Z</time>
      </trkpt>
      <trkpt lat="45.97581" lon="1.20164">
        <ele>382</ele>
        <time>2021-03-06T22:13:11Z</time>
      </trkpt>
      <trkpt lat="45.97574" lon="1.20108">
        <ele>386</ele>
        <time>2021-03-06T22:13:20Z</time>
      </trkpt>
      <trkpt lat="45.97546" lon="1.20006">
        <ele>385</ele>
        <time>2021-03-06T22:13:38Z</time>
      </trkpt>
      <trkpt lat="45.97542" lon="1.19919">
        <ele>383</ele>
        <time>2021-03-06T22:13:52Z</time>
      </trkpt>
      <trkpt lat="45.97578" lon="1.19837">
        <ele>380</ele>
        <time>2021-03-06T22:14:08Z</time>
      </trkpt>
      <trkpt lat="45.97521" lon="1.1972">
        <ele>379</ele>
        <time>2021-03-06T22:14:31Z</time>
      </trkpt>
      <trkpt lat="45.97489" lon="1.19786">
        <ele>375</ele>
        <time>2021-03-06T22:14:44Z</time>
      </trkpt>
      <trkpt lat="45.97461" lon="1.20006">
        <ele>367</ele>
        <time>2021-03-06T22:15:21Z</time>
      </trkpt>
      <trkpt lat="45.97486" lon="1.20169">
        <ele>365</ele>
        <time>2021-03-06T22:15:48Z</time>
      </trkpt>
      <trkpt lat="45.97411" lon="1.20271">
        <ele>360</ele>
        <time>2021-03-06T22:16:12Z</time>
      </trkpt>
      <trkpt lat="45.97376" lon="1.20378">
        <ele>355</ele>
        <time>2021-03-06T22:16:31Z</time>
      </trkpt>
      <trkpt lat="45.97305" lon="1.20389">
        <ele>348</ele>
        <time>2021-03-06T22:16:48Z</time>
      </trkpt>
      <trkpt lat="45.97273" lon="1.20373">
        <ele>345</ele>
        <time>2021-03-06T22:16:56Z</time>
      </trkpt>
      <trkpt lat="45.97241" lon="1.20292">
        <ele>344</ele>
        <time>2021-03-06T22:17:11Z</time>
      </trkpt>
      <trkpt lat="45.97198" lon="1.20251">
        <ele>342</ele>
        <time>2021-03-06T22:17:23Z</time>
      </trkpt>
      <trkpt lat="45.97145" lon="1.2022">
        <ele>339</ele>
        <time>2021-03-06T22:17:36Z</time>
      </trkpt>
      <trkpt lat="45.97088" lon="1.20195">
        <ele>331</ele>
        <time>2021-03-06T22:17:50Z</time>
      </trkpt>
      <trkpt lat="45.9695" lon="1.20246">
        <ele>337</ele>
        <time>2021-03-06T22:18:23Z</time>
      </trkpt>
      <trkpt lat="45.96883" lon="1.20225">
        <ele>341</ele>
        <time>2021-03-06T22:18:39Z</time>
      </trkpt>
      <trkpt lat="45.96822" lon="1.20256">
        <ele>339</ele>
        <time>2021-03-06T22:18:55Z</time>
      </trkpt>
      <trkpt lat="45.96783" lon="1.20281">
        <ele>335</ele>
        <time>2021-03-06T22:19:05Z</time>
      </trkpt>
      <trkpt lat="45.96691" lon="1.20241">
        <ele>329</ele>
        <time>2021-03-06T22:19:27Z</time>
      </trkpt>
      <trkpt lat="45.96698" lon="1.20082">
        <ele>336</ele>
        <time>2021-03-06T22:19:53Z</time>
      </trkpt>
      <trkpt lat="45.96766" lon="1.1996">
        <ele>340</ele>
        <time>2021-03-06T22:20:18Z</time>
      </trkpt>
      <trkpt lat="45.96893" lon="1.1996">
        <ele>347</ele>
        <time>2021-03-06T22:20:48Z</time>
      </trkpt>
      <trkpt lat="45.97081" lon="1.19929">
        <ele>345</ele>
        <time>2021-03-06T22:21:32Z</time>
      </trkpt>
      <trkpt lat="45.97134" lon="1.19848">
        <ele>358</ele>
        <time>2021-03-06T22:21:50Z</time>
      </trkpt>
      <trkpt lat="45.97145" lon="1.1973">
        <ele>364</ele>
        <time>2021-03-06T22:22:09Z</time>
      </trkpt>
      <trkpt lat="45.97237" lon="1.19592">
        <ele>372</ele>
        <time>2021-03-06T22:22:40Z</time>
      </trkpt>
      <trkpt lat="45.97294" lon="1.19495">
        <ele>369</ele>
        <time>2021-03-06T22:23:01Z</time>
      </trkpt>
      <trkpt lat="45.97328" lon="1.19459">
        <ele>372</ele>
        <time>2021-03-06T22:23:11Z</time>
      </trkpt>
      <trkpt lat="45.97349" lon="1.19413">
        <ele>376</ele>
        <time>2021-03-06T22:23:20Z</time>
      </trkpt>
      <trkpt lat="45.97277" lon="1.19346">
        <ele>379</ele>
        <time>2021-03-06T22:23:40Z</time>
      </trkpt>
      <trkpt lat="45.97248" lon="1.19377">
        <ele>373</ele>
        <time>2021-03-06T22:23:48Z</time>
      </trkpt>
      <trkpt lat="45.97216" lon="1.19352">
        <ele>376</ele>
        <time>2021-03-06T22:23:57Z</time>
      </trkpt>
      <trkpt lat="45.97191" lon="1.19359">
        <ele>375</ele>
        <time>2021-03-06T22:24:03Z</time>
      </trkpt>
      <trkpt lat="45.97172" lon="1.19389">
        <ele>372</ele>
        <time>2021-03-06T22:24:09Z</time>
      </trkpt>
      <trkpt lat="45.97138" lon="1.19392">
        <ele>372</ele>
        <time>2021-03-06T22:24:17Z</time>
      </trkpt>
      <trkpt lat="45.97039" lon="1.19274">
        <ele>383</ele>
        <time>2021-03-06T22:24:47Z</time>
      </trkpt>
      <trkpt lat="45.97007" lon="1.19304">
        <ele>381</ele>
        <time>2021-03-06T22:24:56Z</time>
      </trkpt>
      <trkpt lat="45.96963" lon="1.19274">
        <ele>387</ele>
        <time>2021-03-06T22:25:08Z</time>
      </trkpt>
      <trkpt lat="45.9702" lon="1.1921">
        <ele>389</ele>
        <time>2021-03-06T22:25:25Z</time>
      </trkpt>
      <trkpt lat="45.97054" lon="1.1911">
        <ele>393</ele>
        <time>2021-03-06T22:25:43Z</time>
      </trkpt>
      <trkpt lat="45.97056" lon="1.19049">
        <ele>393</ele>
        <time>2021-03-06T22:25:53Z</time>
      </trkpt>
      <trkpt lat="45.9702" lon="1.19034">
        <ele>397</ele>
        <time>2021-03-06T22:26:01Z</time>
      </trkpt>
      <trkpt lat="45.96997" lon="1.19082">
        <ele>402</ele>
        <time>2021-03-06T22:26:11Z</time>
      </trkpt>
      <trkpt lat="45.96929" lon="1.19073">
        <ele>403</ele>
        <time>2021-03-06T22:26:27Z</time>
      </trkpt>
      <trkpt lat="45.96923" lon="1.19019">
        <ele>401</ele>
        <time>2021-03-06T22:26:36Z</time>
      </trkpt>
      <trkpt lat="45.96925" lon="1.18906">
        <ele>399</ele>
        <time>2021-03-06T22:26:54Z</time>
      </trkpt>
      <trkpt lat="45.96893" lon="1.18743">
        <ele>391</ele>
        <time>2021-03-06T22:27:21Z</time>
      </trkpt>
      <trkpt lat="45.96908" lon="1.18645">
        <ele>383</ele>
        <time>2021-03-06T22:27:38Z</time>
      </trkpt>
      <trkpt lat="45.96883" lon="1.18603">
        <ele>381</ele>
        <time>2021-03-06T22:27:47Z</time>
      </trkpt>
      <trkpt lat="45.96815" lon="1.18636">
        <ele>386</ele>
        <time>2021-03-06T22:28:03Z</time>
      </trkpt>
      <trkpt lat="45.96763" lon="1.18709">
        <ele>384</ele>
        <time>2021-03-06T22:28:20Z</time>
      </trkpt>
      <trkpt lat="45.96699" lon="1.18752">
        <ele>375</ele>
        <time>2021-03-06T22:28:37Z</time>
      </trkpt>
      <trkpt lat="45.96581" lon="1.18755">
        <ele>369</ele>
        <time>2021-03-06T22:29:04Z</time>
      </trkpt>
      <trkpt lat="45.96524" lon="1.18736">
        <ele>360</ele>
        <time>2021-03-06T22:29:18Z</time>
      </trkpt>
      <trkpt lat="45.96463" lon="1.1877">
        <ele>353</ele>
        <time>2021-03-06T22:29:33Z</time>
      </trkpt>
      <trkpt lat="45.96432" lon="1.188">
        <ele>352</ele>
        <time>2021-03-06T22:29:42Z</time>
      </trkpt>
      <trkpt lat="45.96419" lon="1.18855">
        <ele>352</ele>
        <time>2021-03-06T22:29:52Z</time>
      </trkpt>
      <trkpt lat="45.96387" lon="1.18855">
        <ele>352</ele>
        <time>2021-03-06T22:29:59Z</time>
      </trkpt>
      <trkpt lat="45.96345" lon="1.18985">
        <ele>355</ele>
        <time>2021-03-06T22:30:22Z</time>
      </trkpt>
      <trkpt lat="45.96324" lon="1.19076">
        <ele>354</ele>
        <time>2021-03-06T22:30:38Z</time>
      </trkpt>
      <trkpt lat="45.96172" lon="1.18988">
        <ele>350</ele>
        <time>2021-03-06T22:31:16Z</time>
      </trkpt>
      <trkpt lat="45.96155" lon="1.18964">
        <ele>349</ele>
        <time>2021-03-06T22:31:22Z</time>
      </trkpt>
      <trkpt lat="45.96136" lon="1.18852">
        <ele>352</ele>
        <time>2021-03-06T22:31:40Z</time>
      </trkpt>
      <trkpt lat="45.96094" lon="1.18746">
        <ele>350</ele>
        <time>2021-03-06T22:32:00Z</time>
      </trkpt>
      <trkpt lat="45.96069" lon="1.18636">
        <ele>350</ele>
        <time>2021-03-06T22:32:19Z</time>
      </trkpt>
      <trkpt lat="45.96069" lon="1.18585">
        <ele>350</ele>
        <time>2021-03-06T22:32:27Z</time>
      </trkpt>
      <trkpt lat="45.96081" lon="1.18515">
        <ele>354</ele>
        <time>2021-03-06T22:32:39Z</time>
      </trkpt>
      <trkpt lat="45.96026" lon="1.18454">
        <ele>354</ele>
        <time>2021-03-06T22:32:55Z</time>
      </trkpt>
      <trkpt lat="45.9597" lon="1.18448">
        <ele>353</ele>
        <time>2021-03-06T22:33:08Z</time>
      </trkpt>
      <trkpt lat="45.95898" lon="1.18445">
        <ele>353</ele>
        <time>2021-03-06T22:33:25Z</time>
      </trkpt>
      <trkpt lat="45.95835" lon="1.18509">
        <ele>350</ele>
        <time>2021-03-06T22:33:43Z</time>
      </trkpt>
      <trkpt lat="45.9571" lon="1.18466">
        <ele>351</ele>
        <time>2021-03-06T22:34:13Z</time>
      </trkpt>
      <trkpt lat="45.95556" lon="1.18457">
        <ele>353</ele>
        <time>2021-03-06T22:34:49Z</time>
      </trkpt>
      <trkpt lat="45.95512" lon="1.18463">
        <ele>355</ele>
        <time>2021-03-06T22:34:59Z</time>
      </trkpt>
      <trkpt lat="45.95524" lon="1.18602">
        <ele>354</ele>
        <time>2021-03-06T22:35:22Z</time>
      </trkpt>
      <trkpt lat="45.95581" lon="1.18776">
        <ele>346</ele>
        <time>2021-03-06T22:35:53Z</time>
      </trkpt>
      <trkpt lat="45.95574" lon="1.18914">
        <ele>341</ele>
        <time>2021-03-06T22:36:16Z</time>
      </trkpt>
      <trkpt lat="45.95613" lon="1.19041">
        <ele>333</ele>
        <time>2021-03-06T22:36:38Z</time>
      </trkpt>
      <trkpt lat="45.95605" lon="1.19113">
        <ele>330</ele>
        <time>2021-03-06T22:36:50Z</time>
      </trkpt>
      <trkpt lat="45.95531" lon="1.19286">
        <ele>333</ele>
        <time>2021-03-06T22:37:23Z</time>
      </trkpt>
      <trkpt lat="45.95425" lon="1.19587">
        <ele>311</ele>
        <time>2021-03-06T22:38:18Z</time>
      </trkpt>
      <trkpt lat="45.95456" lon="1.19654">
        <ele>311</ele>
        <time>2021-03-06T22:38:31Z</time>
      </trkpt>
      <trkpt lat="45.95329" lon="1.1972">
        <ele>318</ele>
        <time>2021-03-06T22:39:03Z</time>
      </trkpt>
      <trkpt lat="45.95265" lon="1.19786">
        <ele>320</ele>
        <time>2021-03-06T22:39:21Z</time>
      </trkpt>
      <trkpt lat="45.95201" lon="1.19934">
        <ele>317</ele>
        <time>2021-03-06T22:39:49Z</time>
      </trkpt>
      <trkpt lat="45.95233" lon="1.20057">
        <ele>313</ele>
        <time>2021-03-06T22:40:11Z</time>
      </trkpt>
      <trkpt lat="45.95201" lon="1.20169">
        <ele>314</ele>
        <time>2021-03-06T22:40:30Z</time>
      </trkpt>
      <trkpt lat="45.95194" lon="1.20286">
        <ele>316</ele>
        <time>2021-03-06T22:40:49Z</time>
      </trkpt>
      <trkpt lat="45.95219" lon="1.20343">
        <ele>321</ele>
        <time>2021-03-06T22:41:00Z</time>
      </trkpt>
      <trkpt lat="45.95201" lon="1.20567">
        <ele>330</ele>
        <time>2021-03-06T22:41:37Z</time>
      </trkpt>
      <trkpt lat="45.95225" lon="1.20556">
        <ele>333</ele>
        <time>2021-03-06T22:41:43Z</time>
      </trkpt>
      <trkpt lat="45.9527" lon="1.20688">
        <ele>347</ele>
        <time>2021-03-06T22:42:07Z</time>
      </trkpt>
      <trkpt lat="45.95215" lon="1.20858">
        <ele>352</ele>
        <time>2021-03-06T22:42:37Z</time>
      </trkpt>
      <trkpt lat="45.95208" lon="1.21011">
        <ele>357</ele>
        <time>2021-03-06T22:43:02Z</time>
      </trkpt>
      <trkpt lat="45.95251" lon="1.2121">
        <ele>367</ele>
        <time>2021-03-06T22:43:36Z</time>
      </trkpt>
      <trkpt lat="45.95205" lon="1.21236">
        <ele>368</ele>
        <time>2021-03-06T22:43:47Z</time>
      </trkpt>
      <trkpt lat="45.95158" lon="1.21164">
        <ele>365</ele>
        <time>2021-03-06T22:44:03Z</time>
      </trkpt>
      <trkpt lat="45.95095" lon="1.21174">
        <ele>366</ele>
        <time>2021-03-06T22:44:18Z</time>
      </trkpt>
      <trkpt lat="45.95041" lon="1.21129">
        <ele>366</ele>
        <time>2021-03-06T22:44:33Z</time>
      </trkpt>
      <trkpt lat="45.94963" lon="1.21032">
        <ele>364</ele>
        <time>2021-03-06T22:44:57Z</time>
      </trkpt>
      <trkpt lat="45.94899" lon="1.20965">
        <ele>359</ele>
        <time>2021-03-06T22:45:15Z</time>
      </trkpt>
      <trkpt lat="45.9497" lon="1.21174">
        <ele>369</ele>
        <time>2021-03-06T22:45:53Z</time>
      </trkpt>
      <trkpt lat="45.94949" lon="1.21414">
        <ele>370</ele>
        <time>2021-03-06T22:46:32Z</time>
      </trkpt>
      <trkpt lat="45.95087" lon="1.2167">
        <ele>368</ele>
        <time>2021-03-06T22:47:25Z</time>
      </trkpt>
      <trkpt lat="45.948" lon="1.21833">
        <ele>362</ele>
        <time>2021-03-06T22:48:37Z</time>
      </trkpt>
      <trkpt lat="45.94669" lon="1.21915">
        <ele>370</ele>
        <time>2021-03-06T22:49:10Z</time>
      </trkpt>
      <trkpt lat="45.94626" lon="1.21996">
        <ele>369</ele>
        <time>2021-03-06T22:49:27Z</time>
      </trkpt>
      <trkpt lat="45.94591" lon="1.22083">
        <ele>372</ele>
        <time>2021-03-06T22:49:43Z</time>
      </trkpt>
      <trkpt lat="45.94555" lon="1.22124">
        <ele>373</ele>
        <time>2021-03-06T22:49:54Z</time>
      </trkpt>
      <trkpt lat="45.9452" lon="1.22022">
        <ele>376</ele>
        <time>2021-03-06T22:50:13Z</time>
      </trkpt>
      <trkpt lat="45.94513" lon="1.21971">
        <ele>377</ele>
        <time>2021-03-06T22:50:21Z</time>
      </trkpt>
      <trkpt lat="45.94456" lon="1.21909">
        <ele>380</ele>
        <time>2021-03-06T22:50:38Z</time>
      </trkpt>
      <trkpt lat="45.94498" lon="1.21726">
        <ele>375</ele>
        <time>2021-03-06T22:51:09Z</time>
      </trkpt>
      <trkpt lat="45.94459" lon="1.21608">
        <ele>374</ele>
        <time>2021-03-06T22:51:30Z</time>
      </trkpt>
      <trkpt lat="45.94474" lon="1.2146">
        <ele>371</ele>
        <time>2021-03-06T22:51:54Z</time>
      </trkpt>
      <trkpt lat="45.94459" lon="1.21277">
        <ele>365</ele>
        <time>2021-03-06T22:52:24Z</time>
      </trkpt>
      <trkpt lat="45.94388" lon="1.21261">
        <ele>367</ele>
        <time>2021-03-06T22:52:41Z</time>
      </trkpt>
      <trkpt lat="45.94296" lon="1.21292">
        <ele>368</ele>
        <time>2021-03-06T22:53:03Z</time>
      </trkpt>
      <trkpt lat="45.94218" lon="1.21374">
        <ele>372</ele>
        <time>2021-03-06T22:53:26Z</time>
      </trkpt>
      <trkpt lat="45.93913" lon="1.21363">
        <ele>374</ele>
        <time>2021-03-06T22:54:37Z</time>
      </trkpt>
      <trkpt lat="45.93792" lon="1.21312">
        <ele>380</ele>
        <time>2021-03-06T22:55:06Z</time>
      </trkpt>
      <trkpt lat="45.93686" lon="1.2121">
        <ele>382</ele>
        <time>2021-03-06T22:55:36Z</time>
      </trkpt>
      <trkpt lat="45.93647" lon="1.21154">
        <ele>382</ele>
        <time>2021-03-06T22:55:49Z</time>
      </trkpt>
      <trkpt lat="45.93622" lon="1.21032">
        <ele>378</ele>
        <time>2021-03-06T22:56:10Z</time>
      </trkpt>
      <trkpt lat="45.93583" lon="1.21006">
        <ele>378</ele>
        <time>2021-03-06T22:56:20Z</time>
      </trkpt>
      <trkpt lat="45.93522" lon="1.20975">
        <ele>377</ele>
        <time>2021-03-06T22:56:35Z</time>
      </trkpt>
      <trkpt lat="45.93409" lon="1.20884">
        <ele>379</ele>
        <time>2021-03-06T22:57:05Z</time>
      </trkpt>
      <trkpt lat="45.93363" lon="1.20751">
        <ele>378</ele>
        <time>2021-03-06T22:57:29Z</time>
      </trkpt>
      <trkpt lat="45.93317" lon="1.20679">
        <ele>373</ele>
        <time>2021-03-06T22:57:45Z</time>
      </trkpt>
      <trkpt lat="45.93263" lon="1.20613">
        <ele>364</ele>
        <time>2021-03-06T22:58:02Z</time>
      </trkpt>
      <trkpt lat="45.9316" lon="1.20608">
        <ele>362</ele>
        <time>2021-03-06T22:58:26Z</time>
      </trkpt>
      <trkpt lat="45.93125" lon="1.20572">
        <ele>365</ele>
        <time>2021-03-06T22:58:36Z</time>
      </trkpt>
      <trkpt lat="45.93153" lon="1.2047">
        <ele>362</ele>
        <time>2021-03-06T22:58:54Z</time>
      </trkpt>
      <trkpt lat="45.93121" lon="1.20353">
        <ele>366</ele>
        <time>2021-03-06T22:59:14Z</time>
      </trkpt>
      <trkpt lat="45.92947" lon="1.20261">
        <ele>374</ele>
        <time>2021-03-06T22:59:57Z</time>
      </trkpt>
      <trkpt lat="45.92887" lon="1.2019">
        <ele>366</ele>
        <time>2021-03-06T23:00:16Z</time>
      </trkpt>
      <trkpt lat="45.92834" lon="1.20154">
        <ele>367</ele>
        <time>2021-03-06T23:00:29Z</time>
      </trkpt>
      <trkpt lat="45.92759" lon="1.20077">
        <ele>373</ele>
        <time>2021-03-06T23:00:51Z</time>
      </trkpt>
      <trkpt lat="45.92734" lon="1.19985">
        <ele>374</ele>
        <time>2021-03-06T23:01:07Z</time>
      </trkpt>
      <trkpt lat="45.92766" lon="1.19883">
        <ele>372</ele>
        <time>2021-03-06T23:01:25Z</time>
      </trkpt>
      <trkpt lat="45.92781" lon="1.19766">
        <ele>366</ele>
        <time>2021-03-06T23:01:44Z</time>
      </trkpt>
      <trkpt lat="45.92852" lon="1.19649">
        <ele>359</ele>
        <time>2021-03-06T23:02:09Z</time>
      </trkpt>
      <trkpt lat="45.92738" lon="1.19659">
        <ele>358</ele>
        <time>2021-03-06T23:02:36Z</time>
      </trkpt>
      <trkpt lat="45.92699" lon="1.19541">
        <ele>353</ele>
        <time>2021-03-06T23:02:57Z</time>
      </trkpt>
      <trkpt lat="45.92653" lon="1.19271">
        <ele>346</ele>
        <time>2021-03-06T23:03:43Z</time>
      </trkpt>
      <trkpt lat="45.92621" lon="1.19113">
        <ele>340</ele>
        <time>2021-03-06T23:04:09Z</time>
      </trkpt>
      <trkpt lat="45.92546" lon="1.19174">
        <ele>339</ele>
        <time>2021-03-06T23:04:29Z</time>
      </trkpt>
      <trkpt lat="45.92479" lon="1.19245">
        <ele>341</ele>
        <time>2021-03-06T23:04:49Z</time>
      </trkpt>
      <trkpt lat="45.92426" lon="1.19194">
        <ele>344</ele>
        <time>2021-03-06T23:05:04Z</time>
      </trkpt>
      <trkpt lat="45.92355" lon="1.19184">
        <ele>346</ele>
        <time>2021-03-06T23:05:20Z</time>
      </trkpt>
      <trkpt lat="45.92284" lon="1.19123">
        <ele>345</ele>
        <time>2021-03-06T23:05:40Z</time>
      </trkpt>
      <trkpt lat="45.9223" lon="1.19041">
        <ele>345</ele>
        <time>2021-03-06T23:05:58Z</time>
      </trkpt>
      <trkpt lat="45.92227" lon="1.18954">
        <ele>342</ele>
        <time>2021-03-06T23:06:12Z</time>
      </trkpt>
      <trkpt lat="45.92198" lon="1.18832">
        <ele>337</ele>
        <time>2021-03-06T23:06:33Z</time>
      </trkpt>
      <trkpt lat="45.92127" lon="1.18832">
        <ele>338</ele>
        <time>2021-03-06T23:06:50Z</time>
      </trkpt>
      <trkpt lat="45.92085" lon="1.18812">
        <ele>338</ele>
        <time>2021-03-06T23:07:00Z</time>
      </trkpt>
      <trkpt lat="45.92042" lon="1.18735">
        <ele>332</ele>
        <time>2021-03-06T23:07:16Z</time>
      </trkpt>
      <trkpt lat="45.91982" lon="1.18699">
        <ele>327</ele>
        <time>2021-03-06T23:07:31Z</time>
      </trkpt>
      <trkpt lat="45.91929" lon="1.18745">
        <ele>325</ele>
        <time>2021-03-06T23:07:46Z</time>
      </trkpt>
      <trkpt lat="45.91868" lon="1.18791">
        <ele>329</ele>
        <time>2021-03-06T23:08:02Z</time>
      </trkpt>
      <trkpt lat="45.91815" lon="1.18766">
        <ele>326</ele>
        <time>2021-03-06T23:08:15Z</time>
      </trkpt>
      <trkpt lat="45.91694" lon="1.18623">
        <ele>334</ele>
        <time>2021-03-06T23:08:51Z</time>
      </trkpt>
      <trkpt lat="45.91634" lon="1.18628">
        <ele>336</ele>
        <time>2021-03-06T23:09:05Z</time>
      </trkpt>
      <trkpt lat="45.91573" lon="1.18664">
        <ele>333</ele>
        <time>2021-03-06T23:09:21Z</time>
      </trkpt>
      <trkpt lat="45.91513" lon="1.18664">
        <ele>332</ele>
        <time>2021-03-06T23:09:35Z</time>
      </trkpt>
      <trkpt lat="45.91517" lon="1.18597">
        <ele>341</ele>
        <time>2021-03-06T23:09:46Z</time>
      </trkpt>
      <trkpt lat="45.91581" lon="1.1851">
        <ele>342</ele>
        <time>2021-03-06T23:10:06Z</time>
      </trkpt>
      <trkpt lat="45.91701" lon="1.18424">
        <ele>347</ele>
        <time>2021-03-06T23:10:38Z</time>
      </trkpt>
      <trkpt lat="45.91691" lon="1.18347">
        <ele>349</ele>
        <time>2021-03-06T23:10:50Z</time>
      </trkpt>
      <trkpt lat="45.91662" lon="1.18265">
        <ele>354</ele>
        <time>2021-03-06T23:11:05Z</time>
      </trkpt>
      <trkpt lat="45.91613" lon="1.18179">
        <ele>356</ele>
        <time>2021-03-06T23:11:23Z</time>
      </trkpt>
      <trkpt lat="45.91563" lon="1.18107">
        <ele>363</ele>
        <time>2021-03-06T23:11:40Z</time>
      </trkpt>
      <trkpt lat="45.91517" lon="1.18087">
        <ele>365</ele>
        <time>2021-03-06T23:11:51Z</time>
      </trkpt>
      <trkpt lat="45.91439" lon="1.18097">
        <ele>368</ele>
        <time>2021-03-06T23:12:09Z</time>
      </trkpt>
      <trkpt lat="45.91343" lon="1.18041">
        <ele>371</ele>
        <time>2021-03-06T23:12:34Z</time>
      </trkpt>
      <trkpt lat="45.91247" lon="1.17969">
        <ele>373</ele>
        <time>2021-03-06T23:12:59Z</time>
      </trkpt>
      <trkpt lat="45.91172" lon="1.17883">
        <ele>372</ele>
        <time>2021-03-06T23:13:21Z</time>
      </trkpt>
      <trkpt lat="45.91027" lon="1.17806">
        <ele>377</ele>
        <time>2021-03-06T23:13:57Z</time>
      </trkpt>
      <trkpt lat="45.90973" lon="1.1777">
        <ele>380</ele>
        <time>2021-03-06T23:14:11Z</time>
      </trkpt>
      <trkpt lat="45.9081" lon="1.17515">
        <ele>383</ele>
        <time>2021-03-06T23:15:08Z</time>
      </trkpt>
      <trkpt lat="45.90743" lon="1.17444">
        <ele>385</ele>
        <time>2021-03-06T23:15:27Z</time>
      </trkpt>
      <trkpt lat="45.90714" lon="1.17377">
        <ele>386</ele>
        <time>2021-03-06T23:15:40Z</time>
      </trkpt>
      <trkpt lat="45.90668" lon="1.17311">
        <ele>387</ele>
        <time>2021-03-06T23:15:55Z</time>
      </trkpt>
      <trkpt lat="45.90632" lon="1.17173">
        <ele>387</ele>
        <time>2021-03-06T23:16:19Z</time>
      </trkpt>
      <trkpt lat="45.90576" lon="1.16872">
        <ele>393</ele>
        <time>2021-03-06T23:17:10Z</time>
      </trkpt>
      <trkpt lat="45.90462" lon="1.16877">
        <ele>396</ele>
        <time>2021-03-06T23:17:36Z</time>
      </trkpt>
      <trkpt lat="45.90334" lon="1.16923">
        <ele>401</ele>
        <time>2021-03-06T23:18:07Z</time>
      </trkpt>
      <trkpt lat="45.90281" lon="1.16964">
        <ele>402</ele>
        <time>2021-03-06T23:18:21Z</time>
      </trkpt>
      <trkpt lat="45.90217" lon="1.1702">
        <ele>403</ele>
        <time>2021-03-06T23:18:39Z</time>
      </trkpt>
      <trkpt lat="45.90149" lon="1.17097">
        <ele>403</ele>
        <time>2021-03-06T23:18:59Z</time>
      </trkpt>
      <trkpt lat="45.9011" lon="1.17163">
        <ele>404</ele>
        <time>2021-03-06T23:19:13Z</time>
      </trkpt>
      <trkpt lat="45.90089" lon="1.17025">
        <ele>405</ele>
        <time>2021-03-06T23:19:36Z</time>
      </trkpt>
      <trkpt lat="45.90061" lon="1.16867">
        <ele>400</ele>
        <time>2021-03-06T23:20:02Z</time>
      </trkpt>
      <trkpt lat="45.90022" lon="1.16816">
        <ele>399</ele>
        <time>2021-03-06T23:20:15Z</time>
      </trkpt>
      <trkpt lat="45.89958" lon="1.16688">
        <ele>396</ele>
        <time>2021-03-06T23:20:40Z</time>
      </trkpt>
      <trkpt lat="45.89862" lon="1.1654">
        <ele>391</ele>
        <time>2021-03-06T23:21:13Z</time>
      </trkpt>
      <trkpt lat="45.89723" lon="1.16403">
        <ele>385</ele>
        <time>2021-03-06T23:21:53Z</time>
      </trkpt>
      <trkpt lat="45.89581" lon="1.16433">
        <ele>382</ele>
        <time>2021-03-06T23:22:26Z</time>
      </trkpt>
      <trkpt lat="45.89503" lon="1.16469">
        <ele>379</ele>
        <time>2021-03-06T23:22:45Z</time>
      </trkpt>
      <trkpt lat="45.8945" lon="1.16561">
        <ele>376</ele>
        <time>2021-03-06T23:23:05Z</time>
      </trkpt>
      <trkpt lat="45.89297" lon="1.1676">
        <ele>387</ele>
        <time>2021-03-06T23:23:53Z</time>
      </trkpt>
      <trkpt lat="45.89244" lon="1.16842">
        <ele>387</ele>
        <time>2021-03-06T23:24:11Z</time>
      </trkpt>
      <trkpt lat="45.89208" lon="1.16826">
        <ele>387</ele>
        <time>2021-03-06T23:24:20Z</time>
      </trkpt>
      <trkpt lat="45.89134" lon="1.16867">
        <ele>389</ele>
        <time>2021-03-06T23:24:38Z</time>
      </trkpt>
      <trkpt lat="45.88842" lon="1.17087">
        <ele>412</ele>
        <time>2021-03-06T23:25:55Z</time>
      </trkpt>
      <trkpt lat="45.88803" lon="1.17148">
        <ele>414</ele>
        <time>2021-03-06T23:26:09Z</time>
      </trkpt>
      <trkpt lat="45.88661" lon="1.17301">
        <ele>420</ele>
        <time>2021-03-06T23:26:50Z</time>
      </trkpt>
      <trkpt lat="45.88565" lon="1.17342">
        <ele>425</ele>
        <time>2021-03-06T23:27:14Z</time>
      </trkpt>
      <trkpt lat="45.8843" lon="1.17383">
        <ele>432</ele>
        <time>2021-03-06T23:27:46Z</time>
      </trkpt>
      <trkpt lat="45.88274" lon="1.17071">
        <ele>430</ele>
        <time>2021-03-06T23:28:48Z</time>
      </trkpt>
      <trkpt lat="45.88167" lon="1.16847">
        <ele>427</ele>
        <time>2021-03-06T23:29:32Z</time>
      </trkpt>
      <trkpt lat="45.88029" lon="1.16581">
        <ele>421</ele>
        <time>2021-03-06T23:30:26Z</time>
      </trkpt>
      <trkpt lat="45.87894" lon="1.16158">
        <ele>410</ele>
        <time>2021-03-06T23:31:42Z</time>
      </trkpt>
      <trkpt lat="45.87798" lon="1.16347">
        <ele>409</ele>
        <time>2021-03-06T23:32:20Z</time>
      </trkpt>
      <trkpt lat="45.87549" lon="1.16939">
        <ele>403</ele>
        <time>2021-03-06T23:34:13Z</time>
      </trkpt>
      <trkpt lat="45.87467" lon="1.17189">
        <ele>408</ele>
        <time>2021-03-06T23:34:57Z</time>
      </trkpt>
      <trkpt lat="45.87393" lon="1.17536">
        <ele>417</ele>
        <time>2021-03-06T23:35:56Z</time>
      </trkpt>
    </trkseg>
  </trk>
</gpx>